Overview Statistics Trail Chart Weather Telemetry Raw packets
 

This is the latest recevied weather packets stored in our database for station/object DF7ER-12. If no packets are shown the sender has not sent any weather packets the latest 10 day(s).

<< 69 70 71 72 73 74 75 >>
Time Temp. Humidity Pressure Rain* Wind** Luminosity Snow
1788177381 25.56° C 70% 998.9 hPa - - - -
1788177095 26.67° C 67% 998.9 hPa - - - -
1788176781 26.67° C 67% 998.9 hPa - - - -
1788176481 26.67° C 65% 998.9 hPa - - - -
1788176181 27.22° C 63% 998.9 hPa - - - -
1788175881 27.78° C 62% 999 hPa - - - -
1788175581 28.89° C 62% 999 hPa - - - -
1788175281 29.44° C 61% 999.1 hPa - - - -
1788174981 27.78° C 64% 999 hPa - - - -
1788174681 28.33° C 62% 999.1 hPa - - - -
1788174381 27.22° C 64% 999 hPa - - - -
1788174081 27.22° C 64% 999.1 hPa - - - -
1788173781 27.22° C 66% 999.1 hPa - - - -
1788173481 27.22° C 66% 999.1 hPa - - - -
1788173181 27.78° C 66% 999.3 hPa - - - -
1788172881 26.67° C 68% 999.3 hPa - - - -
1788172581 25.56° C 70% 999.3 hPa - - - -
1788172281 26.67° C 69% 999.4 hPa - - - -
1788171981 26.67° C 69% 999.4 hPa - - - -
1788171681 26.67° C 69% 999.5 hPa - - - -
1788171381 27.22° C 67% 999.4 hPa - - - -
1788171081 26.67° C 69% 999.6 hPa - - - -
1788170781 26.11° C 71% 999.5 hPa - - - -
1788170482 25.56° C 72% 999.5 hPa - - - -
1788170181 25.56° C 72% 999.5 hPa - - - -

* Rain since midnight (hover to see other rain measurements)
** Current wind speed in m/s (hover to see current wind gust speed)